sensor_id;sensor_type;location;lat;lon;timestamp;pressure;altitude;pressure_sealevel;temperature;humidity
10881;BME280;5493;48.884;8.338;2023-02-11T00:01:24;102372.06;;;1.70;100.00
10881;BME280;5493;48.884;8.338;2023-02-11T00:03:51;102375.75;;;1.67;100.00
10881;BME280;5493;48.884;8.338;2023-02-11T00:06:17;102368.63;;;1.68;100.00
10881;BME280;5493;48.884;8.338;2023-02-11T00:08:44;102362.81;;;1.63;100.00
10881;BME280;5493;48.884;8.338;2023-02-11T00:11:12;102367.16;;;1.64;100.00
10881;BME280;5493;48.884;8.338;2023-02-11T00:13:39;102371.81;;;1.73;100.00
10881;BME280;5493;48.884;8.338;2023-02-11T00:16:08;102379.50;;;1.65;100.00
10881;BME280;5493;48.884;8.338;2023-02-11T00:18:35;102378.56;;;1.66;100.00
10881;BME280;5493;48.884;8.338;2023-02-11T00:21:05;102380.59;;;1.49;100.00
10881;BME280;5493;48.884;8.338;2023-02-11T00:23:32;102380.75;;;1.72;100.00
10881;BME280;5493;48.884;8.338;2023-02-11T00:25:59;102378.56;;;1.66;100.00
10881;BME280;5493;48.884;8.338;2023-02-11T00:28:25;102380.28;;;1.54;100.00
10881;BME280;5493;48.884;8.338;2023-02-11T00:30:55;102379.66;;;1.38;100.00
10881;BME280;5493;48.884;8.338;2023-02-11T00:33:23;102370.19;;;1.46;100.00
10881;BME280;5493;48.884;8.338;2023-02-11T00:35:50;102361.66;;;1.54;100.00
10881;BME280;5493;48.884;8.338;2023-02-11T00:38:16;102362.47;;;1.67;100.00
10881;BME280;5493;48.884;8.338;2023-02-11T00:40:43;102361.84;;;1.64;100.00
10881;BME280;5493;48.884;8.338;2023-02-11T00:43:09;102370.19;;;1.46;100.00
10881;BME280;5493;48.884;8.338;2023-02-11T00:45:36;102370.59;;;1.53;100.00
10881;BME280;5493;48.884;8.338;2023-02-11T00:48:02;102374.63;;;1.59;100.00
10881;BME280;5493;48.884;8.338;2023-02-11T00:50:30;102363.06;;;1.47;100.00
10881;BME280;5493;48.884;8.338;2023-02-11T00:52:57;102359.38;;;1.37;100.00
10881;BME280;5493;48.884;8.338;2023-02-11T00:55:23;102365.31;;;1.40;100.00
10881;BME280;5493;48.884;8.338;2023-02-11T00:57:50;102346.63;;;1.29;100.00
10881;BME280;5493;48.884;8.338;2023-02-11T01:00:17;102353.97;;;1.26;100.00
10881;BME280;5493;48.884;8.338;2023-02-11T01:02:43;102347.66;;;1.39;100.00
10881;BME280;5493;48.884;8.338;2023-02-11T01:05:10;102356.03;;;1.46;100.00
10881;BME280;5493;48.884;8.338;2023-02-11T01:07:37;102353.63;;;1.43;100.00
10881;BME280;5493;48.884;8.338;2023-02-11T01:10:04;102352.53;;;1.58;100.00
10881;BME280;5493;48.884;8.338;2023-02-11T01:12:31;102345.88;;;1.40;100.00
10881;BME280;5493;48.884;8.338;2023-02-11T01:14:58;102341.59;;;1.50;100.00
10881;BME280;5493;48.884;8.338;2023-02-11T01:17:24;102343.03;;;1.18;100.00
10881;BME280;5493;48.884;8.338;2023-02-11T01:19:51;102332.91;;;1.35;100.00
10881;BME280;5493;48.884;8.338;2023-02-11T01:22:17;102326.59;;;1.49;100.00
10881;BME280;5493;48.884;8.338;2023-02-11T01:24:45;102323.66;;;1.41;100.00
10881;BME280;5493;48.884;8.338;2023-02-11T01:27:11;102315.84;;;1.51;100.00
10881;BME280;5493;48.884;8.338;2023-02-11T01:29:38;102315.78;;;1.63;100.00
10881;BME280;5493;48.884;8.338;2023-02-11T01:32:04;102310.00;;;1.45;100.00
10881;BME280;5493;48.884;8.338;2023-02-11T01:34:31;102321.00;;;1.41;100.00
10881;BME280;5493;48.884;8.338;2023-02-11T01:36:58;102317.56;;;1.52;100.00
10881;BME280;5493;48.884;8.338;2023-02-11T01:39:25;102324.06;;;1.47;100.00
10881;BME280;5493;48.884;8.338;2023-02-11T01:41:53;102322.13;;;1.49;100.00
10881;BME280;5493;48.884;8.338;2023-02-11T01:44:22;102320.31;;;1.50;100.00
10881;BME280;5493;48.884;8.338;2023-02-11T01:46:49;102314.06;;;1.38;100.00
10881;BME280;5493;48.884;8.338;2023-02-11T01:49:18;102299.84;;;1.63;100.00
10881;BME280;5493;48.884;8.338;2023-02-11T01:51:48;102308.50;;;1.78;100.00
10881;BME280;5493;48.884;8.338;2023-02-11T01:54:20;102305.00;;;1.54;100.00
10881;BME280;5493;48.884;8.338;2023-02-11T01:57:07;102307.19;;;1.60;100.00
10881;BME280;5493;48.884;8.338;2023-02-11T01:59:55;102303.72;;;1.59;100.00
10881;BME280;5493;48.884;8.338;2023-02-11T02:02:29;102303.06;;;1.56;100.00
10881;BME280;5493;48.884;8.338;2023-02-11T02:05:02;102290.28;;;1.61;100.00
10881;BME280;5493;48.884;8.338;2023-02-11T02:07:33;102295.16;;;1.67;100.00
10881;BME280;5493;48.884;8.338;2023-02-11T02:10:07;102296.63;;;1.71;100.00
10881;BME280;5493;48.884;8.338;2023-02-11T02:12:36;102284.38;;;1.81;100.00
10881;BME280;5493;48.884;8.338;2023-02-11T02:15:23;102287.41;;;1.87;100.00
10881;BME280;5493;48.884;8.338;2023-02-11T02:18:00;102290.50;;;1.81;100.00
10881;BME280;5493;48.884;8.338;2023-02-11T02:23:51;102303.00;;;1.92;100.00
10881;BME280;5493;48.884;8.338;2023-02-11T02:26:38;102296.75;;;1.69;100.00
10881;BME280;5493;48.884;8.338;2023-02-11T02:29:44;102304.13;;;1.53;100.00
10881;BME280;5493;48.884;8.338;2023-02-11T02:32:24;102295.75;;;1.59;100.00
10881;BME280;5493;48.884;8.338;2023-02-11T02:34:57;102286.19;;;1.80;100.00
10881;BME280;5493;48.884;8.338;2023-02-11T02:37:30;102263.25;;;1.67;100.00
10881;BME280;5493;48.884;8.338;2023-02-11T02:40:03;102271.31;;;1.89;100.00
10881;BME280;5493;48.884;8.338;2023-02-11T02:42:33;102280.81;;;2.04;100.00
10881;BME280;5493;48.884;8.338;2023-02-11T02:45:00;102278.59;;;1.87;100.00
10881;BME280;5493;48.884;8.338;2023-02-11T02:47:28;102273.22;;;2.11;100.00
10881;BME280;5493;48.884;8.338;2023-02-11T02:49:54;102277.28;;;2.27;100.00
10881;BME280;5493;48.884;8.338;2023-02-11T02:52:31;102272.81;;;2.28;100.00
10881;BME280;5493;48.884;8.338;2023-02-11T02:55:23;102268.13;;;2.08;100.00
10881;BME280;5493;48.884;8.338;2023-02-11T02:58:30;102265.03;;;2.25;100.00
10881;BME280;5493;48.884;8.338;2023-02-11T03:01:09;102254.50;;;2.12;100.00
10881;BME280;5493;48.884;8.338;2023-02-11T03:03:42;102243.28;;;2.31;100.00
10881;BME280;5493;48.884;8.338;2023-02-11T03:06:16;102244.47;;;2.27;100.00
10881;BME280;5493;48.884;8.338;2023-02-11T03:08:50;102245.34;;;2.27;100.00
10881;BME280;5493;48.884;8.338;2023-02-11T03:11:20;102243.66;;;2.37;100.00
10881;BME280;5493;48.884;8.338;2023-02-11T03:13:49;102238.69;;;2.44;100.00
10881;BME280;5493;48.884;8.338;2023-02-11T03:16:18;102248.09;;;2.26;100.00
10881;BME280;5493;48.884;8.338;2023-02-11T03:18:50;102250.25;;;2.21;100.00
10881;BME280;5493;48.884;8.338;2023-02-11T03:21:19;102249.19;;;2.23;100.00
10881;BME280;5493;48.884;8.338;2023-02-11T03:23:48;102253.69;;;2.34;100.00
10881;BME280;5493;48.884;8.338;2023-02-11T03:26:20;102247.69;;;2.08;100.00
10881;BME280;5493;48.884;8.338;2023-02-11T03:28:51;102240.25;;;2.35;100.00
10881;BME280;5493;48.884;8.338;2023-02-11T03:31:26;102248.22;;;2.35;100.00
10881;BME280;5493;48.884;8.338;2023-02-11T03:34:00;102236.75;;;2.35;100.00
10881;BME280;5493;48.884;8.338;2023-02-11T03:36:34;102232.06;;;2.38;100.00
10881;BME280;5493;48.884;8.338;2023-02-11T03:39:06;102239.81;;;2.53;100.00
10881;BME280;5493;48.884;8.338;2023-02-11T03:41:34;102229.00;;;2.43;100.00
10881;BME280;5493;48.884;8.338;2023-02-11T03:44:03;102237.59;;;2.46;100.00
10881;BME280;5493;48.884;8.338;2023-02-11T03:46:34;102241.00;;;2.37;100.00
10881;BME280;5493;48.884;8.338;2023-02-11T03:49:08;102237.75;;;2.56;100.00
10881;BME280;5493;48.884;8.338;2023-02-11T03:51:37;102226.34;;;2.43;100.00
10881;BME280;5493;48.884;8.338;2023-02-11T03:54:06;102244.66;;;2.59;100.00
10881;BME280;5493;48.884;8.338;2023-02-11T03:56:38;102249.13;;;2.58;100.00
10881;BME280;5493;48.884;8.338;2023-02-11T03:59:07;102250.47;;;2.07;100.00
10881;BME280;5493;48.884;8.338;2023-02-11T04:01:34;102257.28;;;2.22;100.00
10881;BME280;5493;48.884;8.338;2023-02-11T04:04:00;102261.41;;;2.26;100.00
10881;BME280;5493;48.884;8.338;2023-02-11T04:06:28;102265.34;;;2.55;100.00
10881;BME280;5493;48.884;8.338;2023-02-11T04:08:54;102269.81;;;2.66;100.00
10881;BME280;5493;48.884;8.338;2023-02-11T04:11:21;102254.31;;;2.48;100.00
10881;BME280;5493;48.884;8.338;2023-02-11T04:13:47;102252.63;;;2.59;100.00
10881;BME280;5493;48.884;8.338;2023-02-11T04:16:14;102247.06;;;2.62;100.00
10881;BME280;5493;48.884;8.338;2023-02-11T04:18:40;102241.38;;;2.55;100.00
10881;BME280;5493;48.884;8.338;2023-02-11T04:21:07;102252.50;;;2.49;100.00
10881;BME280;5493;48.884;8.338;2023-02-11T04:23:35;102247.41;;;2.46;100.00
10881;BME280;5493;48.884;8.338;2023-02-11T04:26:01;102244.88;;;2.44;100.00
10881;BME280;5493;48.884;8.338;2023-02-11T04:28:28;102235.94;;;2.45;100.00
10881;BME280;5493;48.884;8.338;2023-02-11T04:30:55;102227.44;;;2.40;100.00
10881;BME280;5493;48.884;8.338;2023-02-11T04:33:22;102237.00;;;2.54;100.00
10881;BME280;5493;48.884;8.338;2023-02-11T04:35:49;102239.66;;;2.54;100.00
10881;BME280;5493;48.884;8.338;2023-02-11T04:38:16;102243.31;;;2.53;100.00
10881;BME280;5493;48.884;8.338;2023-02-11T04:40:43;102237.97;;;2.64;100.00
10881;BME280;5493;48.884;8.338;2023-02-11T04:43:10;102241.75;;;2.62;100.00
10881;BME280;5493;48.884;8.338;2023-02-11T04:45:37;102244.31;;;2.74;100.00
10881;BME280;5493;48.884;8.338;2023-02-11T04:48:03;102241.03;;;2.82;100.00
10881;BME280;5493;48.884;8.338;2023-02-11T04:50:30;102241.50;;;2.87;100.00
10881;BME280;5493;48.884;8.338;2023-02-11T04:52:56;102241.50;;;2.98;100.00
10881;BME280;5493;48.884;8.338;2023-02-11T04:55:23;102246.22;;;2.94;100.00
10881;BME280;5493;48.884;8.338;2023-02-11T04:57:51;102236.41;;;3.06;100.00
10881;BME280;5493;48.884;8.338;2023-02-11T05:00:17;102224.41;;;3.01;100.00
10881;BME280;5493;48.884;8.338;2023-02-11T05:02:44;102222.59;;;3.01;100.00
10881;BME280;5493;48.884;8.338;2023-02-11T05:05:10;102214.00;;;2.97;100.00
10881;BME280;5493;48.884;8.338;2023-02-11T05:07:37;102211.72;;;2.82;100.00
10881;BME280;5493;48.884;8.338;2023-02-11T05:10:03;102198.03;;;2.75;100.00
10881;BME280;5493;48.884;8.338;2023-02-11T05:12:30;102191.63;;;2.78;100.00
10881;BME280;5493;48.884;8.338;2023-02-11T05:14:58;102185.22;;;2.80;100.00
10881;BME280;5493;48.884;8.338;2023-02-11T05:17:24;102181.78;;;2.89;100.00
10881;BME280;5493;48.884;8.338;2023-02-11T05:19:51;102182.53;;;2.80;100.00
10881;BME280;5493;48.884;8.338;2023-02-11T05:22:17;102178.56;;;2.64;100.00
10881;BME280;5493;48.884;8.338;2023-02-11T05:24:43;102171.66;;;2.72;100.00
10881;BME280;5493;48.884;8.338;2023-02-11T05:27:10;102165.72;;;2.69;100.00
10881;BME280;5493;48.884;8.338;2023-02-11T05:29:37;102180.38;;;2.85;100.00
10881;BME280;5493;48.884;8.338;2023-02-11T05:32:05;102183.50;;;2.90;100.00
10881;BME280;5493;48.884;8.338;2023-02-11T05:34:33;102178.03;;;3.03;100.00
10881;BME280;5493;48.884;8.338;2023-02-11T05:36:59;102177.53;;;2.98;100.00
10881;BME280;5493;48.884;8.338;2023-02-11T05:39:26;102171.50;;;3.07;100.00
10881;BME280;5493;48.884;8.338;2023-02-11T05:41:52;102169.19;;;3.03;100.00
10881;BME280;5493;48.884;8.338;2023-02-11T05:44:19;102165.06;;;2.98;100.00
10881;BME280;5493;48.884;8.338;2023-02-11T05:46:45;102170.63;;;3.07;100.00
10881;BME280;5493;48.884;8.338;2023-02-11T05:49:15;102171.06;;;3.23;100.00
10881;BME280;5493;48.884;8.338;2023-02-11T05:51:41;102184.41;;;3.12;100.00
10881;BME280;5493;48.884;8.338;2023-02-11T05:54:08;102183.22;;;3.05;100.00
10881;BME280;5493;48.884;8.338;2023-02-11T05:56:34;102182.50;;;3.14;100.00
10881;BME280;5493;48.884;8.338;2023-02-11T05:59:01;102196.63;;;3.25;100.00
10881;BME280;5493;48.884;8.338;2023-02-11T06:01:28;102201.25;;;3.12;100.00
10881;BME280;5493;48.884;8.338;2023-02-11T06:03:54;102192.13;;;3.26;100.00
10881;BME280;5493;48.884;8.338;2023-02-11T06:06:22;102193.53;;;3.41;100.00
10881;BME280;5493;48.884;8.338;2023-02-11T06:08:49;102198.63;;;3.44;100.00
10881;BME280;5493;48.884;8.338;2023-02-11T06:11:16;102203.75;;;3.36;100.00
10881;BME280;5493;48.884;8.338;2023-02-11T06:13:43;102202.06;;;3.35;100.00
10881;BME280;5493;48.884;8.338;2023-02-11T06:16:09;102199.97;;;3.38;100.00
10881;BME280;5493;48.884;8.338;2023-02-11T06:18:36;102209.56;;;3.30;100.00
10881;BME280;5493;48.884;8.338;2023-02-11T06:21:06;102212.88;;;3.11;100.00
10881;BME280;5493;48.884;8.338;2023-02-11T06:23:34;102213.16;;;2.97;100.00
10881;BME280;5493;48.884;8.338;2023-02-11T06:26:01;102214.00;;;2.97;100.00
10881;BME280;5493;48.884;8.338;2023-02-11T06:28:28;102221.38;;;2.94;100.00
10881;BME280;5493;48.884;8.338;2023-02-11T06:30:56;102214.13;;;2.96;100.00
10881;BME280;5493;48.884;8.338;2023-02-11T06:33:22;102216.81;;;2.96;100.00
10881;BME280;5493;48.884;8.338;2023-02-11T06:35:49;102218.13;;;3.02;100.00
10881;BME280;5493;48.884;8.338;2023-02-11T06:45:01;102206.41;;;2.93;100.00
10881;BME280;5493;48.884;8.338;2023-02-11T06:47:27;102208.66;;;2.97;100.00
10881;BME280;5493;48.884;8.338;2023-02-11T06:49:54;102207.00;;;2.96;100.00
10881;BME280;5493;48.884;8.338;2023-02-11T06:52:20;102203.00;;;2.69;100.00
10881;BME280;5493;48.884;8.338;2023-02-11T06:54:46;102198.78;;;2.77;100.00
10881;BME280;5493;48.884;8.338;2023-02-11T06:57:13;102205.06;;;2.65;100.00
10881;BME280;5493;48.884;8.338;2023-02-11T06:59:40;102201.44;;;2.66;100.00
10881;BME280;5493;48.884;8.338;2023-02-11T07:02:09;102213.03;;;2.43;100.00
10881;BME280;5493;48.884;8.338;2023-02-11T07:04:35;102218.88;;;2.48;100.00
10881;BME280;5493;48.884;8.338;2023-02-11T07:07:02;102211.84;;;2.58;100.00
10881;BME280;5493;48.884;8.338;2023-02-11T07:09:28;102222.75;;;2.77;100.00
10881;BME280;5493;48.884;8.338;2023-02-11T07:11:55;102210.97;;;2.91;100.00
10881;BME280;5493;48.884;8.338;2023-02-11T07:14:21;102214.34;;;3.04;100.00
10881;BME280;5493;48.884;8.338;2023-02-11T07:16:48;102216.41;;;2.89;100.00
10881;BME280;5493;48.884;8.338;2023-02-11T07:19:16;102217.06;;;2.48;100.00
10881;BME280;5493;48.884;8.338;2023-02-11T07:21:42;102218.72;;;2.72;100.00
10881;BME280;5493;48.884;8.338;2023-02-11T07:24:09;102229.03;;;2.87;100.00
10881;BME280;5493;48.884;8.338;2023-02-11T07:26:35;102239.44;;;2.79;100.00
10881;BME280;5493;48.884;8.338;2023-02-11T07:29:04;102242.34;;;2.76;100.00
10881;BME280;5493;48.884;8.338;2023-02-11T07:31:31;102235.47;;;2.85;100.00
10881;BME280;5493;48.884;8.338;2023-02-11T07:33:59;102237.78;;;2.78;100.00
10881;BME280;5493;48.884;8.338;2023-02-11T07:36:28;102245.97;;;2.97;100.00
10881;BME280;5493;48.884;8.338;2023-02-11T07:38:56;102257.38;;;3.00;100.00
10881;BME280;5493;48.884;8.338;2023-02-11T07:41:23;102264.69;;;3.29;100.00
10881;BME280;5493;48.884;8.338;2023-02-11T07:43:51;102267.84;;;3.34;100.00
10881;BME280;5493;48.884;8.338;2023-02-11T07:46:19;102275.50;;;3.28;100.00
10881;BME280;5493;48.884;8.338;2023-02-11T07:48:46;102273.44;;;3.31;100.00
10881;BME280;5493;48.884;8.338;2023-02-11T07:51:14;102268.75;;;3.67;100.00
10881;BME280;5493;48.884;8.338;2023-02-11T07:53:43;102266.88;;;3.35;100.00
10881;BME280;5493;48.884;8.338;2023-02-11T07:56:10;102255.03;;;3.17;100.00
10881;BME280;5493;48.884;8.338;2023-02-11T07:58:38;102256.53;;;2.99;100.00
10881;BME280;5493;48.884;8.338;2023-02-11T08:01:08;102266.69;;;2.94;100.00
10881;BME280;5493;48.884;8.338;2023-02-11T08:03:35;102279.66;;;3.10;100.00
10881;BME280;5493;48.884;8.338;2023-02-11T08:06:02;102276.84;;;3.11;100.00
10881;BME280;5493;48.884;8.338;2023-02-11T08:08:29;102264.75;;;3.07;100.00
10881;BME280;5493;48.884;8.338;2023-02-11T08:10:57;102266.94;;;2.91;100.00
10881;BME280;5493;48.884;8.338;2023-02-11T08:13:23;102272.41;;;2.78;100.00
10881;BME280;5493;48.884;8.338;2023-02-11T08:15:51;102265.22;;;2.79;100.00
10881;BME280;5493;48.884;8.338;2023-02-11T08:18:17;102276.97;;;3.21;100.00
10881;BME280;5493;48.884;8.338;2023-02-11T08:20:44;102268.97;;;3.21;100.00
10881;BME280;5493;48.884;8.338;2023-02-11T08:23:10;102261.84;;;3.21;100.00
10881;BME280;5493;48.884;8.338;2023-02-11T08:25:36;102251.53;;;3.17;100.00
10881;BME280;5493;48.884;8.338;2023-02-11T08:28:05;102251.19;;;3.10;100.00
10881;BME280;5493;48.884;8.338;2023-02-11T08:30:33;102243.66;;;3.15;100.00
10881;BME280;5493;48.884;8.338;2023-02-11T08:32:59;102238.78;;;3.31;100.00
10881;BME280;5493;48.884;8.338;2023-02-11T08:35:26;102236.34;;;3.39;100.00
10881;BME280;5493;48.884;8.338;2023-02-11T08:37:52;102234.53;;;3.40;100.00
10881;BME280;5493;48.884;8.338;2023-02-11T08:40:19;102242.56;;;3.29;100.00
10881;BME280;5493;48.884;8.338;2023-02-11T08:42:46;102242.44;;;2.97;100.00
10881;BME280;5493;48.884;8.338;2023-02-11T08:45:14;102237.50;;;2.92;100.00
10881;BME280;5493;48.884;8.338;2023-02-11T08:47:40;102243.78;;;3.25;100.00
10881;BME280;5493;48.884;8.338;2023-02-11T08:50:07;102243.25;;;3.42;100.00
10881;BME280;5493;48.884;8.338;2023-02-11T08:52:35;102242.88;;;3.46;100.00
10881;BME280;5493;48.884;8.338;2023-02-11T08:55:01;102253.06;;;3.30;100.00
10881;BME280;5493;48.884;8.338;2023-02-11T08:57:28;102241.78;;;3.38;100.00
10881;BME280;5493;48.884;8.338;2023-02-11T08:59:54;102232.84;;;3.28;100.00
10881;BME280;5493;48.884;8.338;2023-02-11T09:02:22;102228.34;;;3.39;100.00
10881;BME280;5493;48.884;8.338;2023-02-11T09:04:48;102231.69;;;3.53;100.00
10881;BME280;5493;48.884;8.338;2023-02-11T09:07:15;102227.06;;;3.55;100.00
10881;BME280;5493;48.884;8.338;2023-02-11T09:09:41;102229.09;;;3.62;100.00
10881;BME280;5493;48.884;8.338;2023-02-11T09:12:09;102233.13;;;3.57;100.00
10881;BME280;5493;48.884;8.338;2023-02-11T09:14:35;102222.66;;;3.76;100.00
10881;BME280;5493;48.884;8.338;2023-02-11T09:17:02;102223.91;;;3.61;100.00
10881;BME280;5493;48.884;8.338;2023-02-11T09:19:30;102225.47;;;3.63;100.00
10881;BME280;5493;48.884;8.338;2023-02-11T09:21:57;102201.72;;;3.60;100.00
10881;BME280;5493;48.884;8.338;2023-02-11T09:24:23;102205.84;;;3.85;100.00
10881;BME280;5493;48.884;8.338;2023-02-11T09:26:50;102204.63;;;3.89;100.00
10881;BME280;5493;48.884;8.338;2023-02-11T09:29:16;102200.41;;;3.86;100.00
10881;BME280;5493;48.884;8.338;2023-02-11T09:31:43;102206.38;;;4.00;100.00
10881;BME280;5493;48.884;8.338;2023-02-11T09:34:10;102205.94;;;4.15;100.00
10881;BME280;5493;48.884;8.338;2023-02-11T09:36:39;102209.13;;;4.30;100.00
10881;BME280;5493;48.884;8.338;2023-02-11T09:39:08;102211.38;;;4.34;100.00
10881;BME280;5493;48.884;8.338;2023-02-11T09:41:42;102218.94;;;4.60;100.00
10881;BME280;5493;48.884;8.338;2023-02-11T09:44:17;102218.38;;;4.86;100.00
10881;BME280;5493;48.884;8.338;2023-02-11T09:46:52;102220.25;;;4.95;100.00
10881;BME280;5493;48.884;8.338;2023-02-11T09:49:22;102215.50;;;5.09;100.00
10881;BME280;5493;48.884;8.338;2023-02-11T09:51:56;102213.00;;;5.26;100.00
10881;BME280;5493;48.884;8.338;2023-02-11T09:54:30;102210.78;;;5.51;100.00
10881;BME280;5493;48.884;8.338;2023-02-11T09:56:59;102218.09;;;5.49;100.00
10881;BME280;5493;48.884;8.338;2023-02-11T09:59:25;102219.81;;;5.59;100.00
10881;BME280;5493;48.884;8.338;2023-02-11T10:01:54;102221.22;;;5.73;100.00
10881;BME280;5493;48.884;8.338;2023-02-11T10:04:38;102225.06;;;5.99;100.00
10881;BME280;5493;48.884;8.338;2023-02-11T10:07:17;102231.09;;;6.11;100.00
10881;BME280;5493;48.884;8.338;2023-02-11T10:09:55;102224.44;;;6.24;100.00
10881;BME280;5493;48.884;8.338;2023-02-11T10:12:42;102231.69;;;6.61;100.00
10881;BME280;5493;48.884;8.338;2023-02-11T10:15:17;102229.56;;;7.01;100.00
10881;BME280;5493;48.884;8.338;2023-02-11T10:18:00;102233.97;;;7.20;100.00
10881;BME280;5493;48.884;8.338;2023-02-11T10:20:34;102234.66;;;7.22;100.00
10881;BME280;5493;48.884;8.338;2023-02-11T10:23:09;102237.81;;;7.35;100.00
10881;BME280;5493;48.884;8.338;2023-02-11T10:25:42;102234.75;;;7.30;100.00
10881;BME280;5493;48.884;8.338;2023-02-11T10:28:12;102225.28;;;7.53;100.00
10881;BME280;5493;48.884;8.338;2023-02-11T10:30:41;102224.41;;;7.53;100.00
10881;BME280;5493;48.884;8.338;2023-02-11T10:33:14;102227.41;;;7.67;100.00
10881;BME280;5493;48.884;8.338;2023-02-11T10:35:45;102228.03;;;7.79;100.00
10881;BME280;5493;48.884;8.338;2023-02-11T10:38:13;102235.78;;;8.00;100.00
10881;BME280;5493;48.884;8.338;2023-02-11T10:40:40;102232.88;;;7.93;100.00
10881;BME280;5493;48.884;8.338;2023-02-11T10:43:10;102224.34;;;7.98;100.00
10881;BME280;5493;48.884;8.338;2023-02-11T10:45:41;102218.34;;;8.04;100.00
10881;BME280;5493;48.884;8.338;2023-02-11T10:48:36;102208.59;;;8.20;100.00
10881;BME280;5493;48.884;8.338;2023-02-11T10:51:07;102214.03;;;8.11;100.00
10881;BME280;5493;48.884;8.338;2023-02-11T10:53:35;102206.28;;;8.08;100.00
10881;BME280;5493;48.884;8.338;2023-02-11T10:56:03;102205.66;;;7.88;100.00
10881;BME280;5493;48.884;8.338;2023-02-11T10:58:43;102201.56;;;8.02;100.00
10881;BME280;5493;48.884;8.338;2023-02-11T11:01:12;102198.97;;;7.92;100.00
10881;BME280;5493;48.884;8.338;2023-02-11T11:03:45;102191.88;;;8.09;100.00
10881;BME280;5493;48.884;8.338;2023-02-11T11:06:12;102190.75;;;8.37;100.00
10881;BME280;5493;48.884;8.338;2023-02-11T11:08:42;102179.97;;;8.63;100.00
10881;BME280;5493;48.884;8.338;2023-02-11T11:11:11;102184.94;;;8.24;100.00
10881;BME280;5493;48.884;8.338;2023-02-11T11:13:38;102192.44;;;8.38;100.00
10881;BME280;5493;48.884;8.338;2023-02-11T11:16:10;102194.28;;;8.37;100.00
10881;BME280;5493;48.884;8.338;2023-02-11T11:18:41;102184.81;;;8.08;100.00
10881;BME280;5493;48.884;8.338;2023-02-11T11:21:13;102178.50;;;8.17;100.00
10881;BME280;5493;48.884;8.338;2023-02-11T11:23:47;102183.09;;;8.50;100.00
10881;BME280;5493;48.884;8.338;2023-02-11T11:26:15;102187.91;;;8.64;100.00
10881;BME280;5493;48.884;8.338;2023-02-11T11:28:51;102173.47;;;8.73;100.00
10881;BME280;5493;48.884;8.338;2023-02-11T11:31:21;102176.97;;;8.66;100.00
10881;BME280;5493;48.884;8.338;2023-02-11T11:33:50;102172.25;;;9.10;100.00
10881;BME280;5493;48.884;8.338;2023-02-11T11:36:20;102170.28;;;9.28;100.00
10881;BME280;5493;48.884;8.338;2023-02-11T11:38:52;102173.34;;;9.41;100.00
10881;BME280;5493;48.884;8.338;2023-02-11T11:41:25;102179.03;;;9.30;100.00
10881;BME280;5493;48.884;8.338;2023-02-11T11:44:03;102179.03;;;9.30;100.00
10881;BME280;5493;48.884;8.338;2023-02-11T11:46:41;102181.63;;;9.64;100.00
10881;BME280;5493;48.884;8.338;2023-02-11T11:49:16;102179.56;;;10.55;100.00
10881;BME280;5493;48.884;8.338;2023-02-11T11:51:50;102175.81;;;10.64;100.00
10881;BME280;5493;48.884;8.338;2023-02-11T11:54:20;102168.59;;;11.26;100.00
10881;BME280;5493;48.884;8.338;2023-02-11T11:56:54;102170.47;;;11.48;100.00
10881;BME280;5493;48.884;8.338;2023-02-11T11:59:24;102176.66;;;11.34;100.00
10881;BME280;5493;48.884;8.338;2023-02-11T12:02:03;102168.47;;;11.73;100.00
10881;BME280;5493;48.884;8.338;2023-02-11T12:04:41;102179.16;;;11.89;100.00
10881;BME280;5493;48.884;8.338;2023-02-11T12:07:26;102185.75;;;12.24;97.41
10881;BME280;5493;48.884;8.338;2023-02-11T12:13:13;102179.53;;;12.97;94.21
10881;BME280;5493;48.884;8.338;2023-02-11T12:15:54;102178.13;;;12.42;93.59
10881;BME280;5493;48.884;8.338;2023-02-11T12:18:38;102176.34;;;12.93;91.66
10881;BME280;5493;48.884;8.338;2023-02-11T12:21:23;102171.34;;;12.75;91.84
10881;BME280;5493;48.884;8.338;2023-02-11T12:24:05;102154.72;;;12.64;92.87
10881;BME280;5493;48.884;8.338;2023-02-11T12:26:41;102159.25;;;13.22;89.42
10881;BME280;5493;48.884;8.338;2023-02-11T12:29:23;102153.25;;;13.26;87.45
10881;BME280;5493;48.884;8.338;2023-02-11T12:31:58;102138.00;;;13.89;85.84
10881;BME280;5493;48.884;8.338;2023-02-11T12:34:43;102144.28;;;13.68;85.83
10881;BME280;5493;48.884;8.338;2023-02-11T12:37:23;102152.50;;;13.96;83.67
10881;BME280;5493;48.884;8.338;2023-02-11T12:40:02;102148.19;;;13.59;85.27
10881;BME280;5493;48.884;8.338;2023-02-11T12:42:49;102151.50;;;13.82;82.90
10881;BME280;5493;48.884;8.338;2023-02-11T12:45:45;102144.78;;;13.78;85.92
10881;BME280;5493;48.884;8.338;2023-02-11T12:48:29;102135.84;;;13.57;85.86
10881;BME280;5493;48.884;8.338;2023-02-11T12:51:05;102132.13;;;13.86;83.61
10881;BME280;5493;48.884;8.338;2023-02-11T12:54:03;102123.97;;;13.15;90.56
10881;BME280;5493;48.884;8.338;2023-02-11T12:56:36;102128.66;;;13.28;88.43
10881;BME280;5493;48.884;8.338;2023-02-11T12:59:09;102131.59;;;13.48;89.07
10881;BME280;5493;48.884;8.338;2023-02-11T13:01:39;102122.38;;;13.63;86.07
10881;BME280;5493;48.884;8.338;2023-02-11T13:04:13;102119.94;;;13.11;89.75
10881;BME280;5493;48.884;8.338;2023-02-11T13:06:43;102130.47;;;13.42;88.82
10881;BME280;5493;48.884;8.338;2023-02-11T13:09:13;102129.06;;;13.25;89.79
10881;BME280;5493;48.884;8.338;2023-02-11T13:11:45;102118.09;;;13.54;88.17
10881;BME280;5493;48.884;8.338;2023-02-11T13:14:21;102113.47;;;14.25;83.70
10881;BME280;5493;48.884;8.338;2023-02-11T13:16:50;102125.06;;;13.42;90.56
10881;BME280;5493;48.884;8.338;2023-02-11T13:19:21;102113.41;;;13.91;87.73
10881;BME280;5493;48.884;8.338;2023-02-11T13:22:04;102110.22;;;13.80;86.78
10881;BME280;5493;48.884;8.338;2023-02-11T13:24:38;102111.00;;;14.02;86.56
10881;BME280;5493;48.884;8.338;2023-02-11T13:27:12;102113.53;;;13.55;89.03
10881;BME280;5493;48.884;8.338;2023-02-11T13:30:12;102108.91;;;14.04;84.94